Time;durP1;ratioP1;P1;durP2;ratioP2;P2;SDS_P1;SDS_P2;PMS_P1;PMS_P2;Temp;Humidity;BMP_temperature;BMP_pressure;BME280_temperature;BME280_humidity;BME280_pressure;Samples;Min_cycle;Max_cycle;Signal;HPM_P1;HPM_P2
2023/03/21 00:00:31;;;;;;;72.38;40.45;;;;;;;-146.25;100.00;52384.41;2079476;28;36433;-71
2023/03/21 00:01:36;;;;;;;75.18;40.35;;;;;;;-146.25;100.00;52356.03;2079926;28;20645;-72
2023/03/21 00:02:38;;;;;;;75.07;41.08;;;;;;;-146.25;100.00;52349.94;2087813;28;34392;-71
2023/03/21 00:03:42;;;;;;;75.03;41.63;;;;;;;-146.25;100.00;52341.84;2088191;28;36610;-71
2023/03/21 00:04:44;;;;;;;74.68;40.97;;;;;;;-146.25;100.00;52349.94;2088644;28;20980;-71
2023/03/21 00:05:54;;;;;;;72.95;39.67;;;;;;;-146.25;100.00;52366.16;2087881;28;36317;-71
2023/03/21 00:06:56;;;;;;;78.53;40.17;;;;;;;-146.25;100.00;52392.53;2088198;28;33111;-71
2023/03/21 00:07:57;;;;;;;72.28;38.80;;;;;;;-146.25;100.00;52360.09;2087990;28;29788;-71
2023/03/21 00:09:03;;;;;;;75.90;40.15;;;;;;;-146.25;100.00;52349.94;2079765;28;20034;-71
2023/03/21 00:10:05;;;;;;;71.93;40.08;;;;;;;-146.25;100.00;52368.19;2080575;28;20046;-71
2023/03/21 00:11:17;;;;;;;66.70;39.55;;;;;;;-146.25;100.00;52351.97;2088009;28;35744;-71
2023/03/21 00:12:21;;;;;;;78.28;42.22;;;;;;;-146.25;100.00;52345.91;2088077;28;34257;-71
2023/03/21 00:13:25;;;;;;;75.78;40.78;;;;;;;-146.25;100.00;52382.38;2087851;28;35520;-71
2023/03/21 00:14:29;;;;;;;72.68;39.65;;;;;;;-146.25;100.00;52339.81;2087431;28;36192;-72
2023/03/21 00:15:31;;;;;;;77.47;40.15;;;;;;;-146.25;100.00;52382.38;2088568;28;20910;-72
2023/03/21 00:16:49;;;;;;;67.55;38.42;;;;;;;-146.25;100.00;52331.69;2087712;28;39009;-71
2023/03/21 00:18:02;;;;;;;69.22;40.10;;;;;;;-146.25;100.00;52354.00;2088147;28;35379;-71
2023/03/21 00:19:05;;;;;;;67.63;38.70;;;;;;;-146.25;100.00;52360.09;2079446;28;35118;-71
2023/03/21 00:20:16;;;;;;;77.32;39.15;;;;;;;-146.25;100.00;52345.91;2080633;28;34579;-71
2023/03/21 00:21:20;;;;;;;73.40;38.67;;;;;;;-146.25;100.00;52358.06;2087843;28;33347;-71
2023/03/21 00:22:42;;;;;;;71.68;38.08;;;;;;;-146.25;100.00;52392.53;2088225;28;20041;-72
2023/03/21 00:23:45;;;;;;;70.72;38.53;;;;;;;-146.25;100.00;52376.31;2088490;28;33250;-71
2023/03/21 00:24:50;;;;;;;69.68;39.58;;;;;;;-146.25;100.00;52382.38;2087342;28;36759;-71
2023/03/21 00:25:53;;;;;;;68.40;37.35;;;;;;;-146.25;100.00;52356.03;2088668;28;32263;-71
2023/03/21 00:26:55;;;;;;;64.90;39.63;;;;;;;-146.25;100.00;52366.16;2080065;28;20835;-71
2023/03/21 00:28:11;;;;;;;65.93;39.20;;;;;;;-146.25;100.00;52360.09;2081152;28;38271;-71
2023/03/21 00:29:16;;;;;;;62.30;38.28;;;;;;;-146.25;100.00;52356.03;2087043;28;34605;-71
2023/03/21 00:30:20;;;;;;;69.15;37.70;;;;;;;-146.25;100.00;52354.00;2079874;28;20042;-70
2023/03/21 00:31:23;;;;;;;66.30;37.97;;;;;;;-146.25;100.00;52382.38;2071398;28;20104;-71
2023/03/21 00:32:25;;;;;;;69.90;39.08;;;;;;;-146.25;100.00;52370.22;2071366;28;27771;-70
2023/03/21 00:33:27;;;;;;;70.18;39.35;;;;;;;-146.25;100.00;52366.16;2087391;28;20038;-71
2023/03/21 00:34:37;;;;;;;78.85;41.10;;;;;;;-146.25;100.00;52333.72;2087340;28;31294;-71
2023/03/21 00:35:52;;;;;;;65.88;37.65;;;;;;;-146.25;100.00;52364.13;2087529;28;20037;-71
2023/03/21 00:37:10;;;;;;;73.15;39.25;;;;;;;-146.25;100.00;52354.00;2087568;28;20920;-71
2023/03/21 00:38:15;;;;;;;69.38;39.45;;;;;;;-146.25;100.00;52360.09;2088031;28;20037;-71
2023/03/21 00:39:17;;;;;;;67.32;38.15;;;;;;;-146.25;100.00;52382.38;2087244;28;20914;-71
2023/03/21 00:40:19;;;;;;;78.18;40.53;;;;;;;-146.25;100.00;52380.38;2088307;28;27717;-71
2023/03/21 00:41:31;;;;;;;71.82;37.90;;;;;;;-146.25;100.00;52364.13;2087778;28;29536;-71
2023/03/21 00:42:43;;;;;;;66.40;38.28;;;;;;;-146.25;100.00;52392.53;2079038;28;28588;-71
2023/03/21 00:43:45;;;;;;;68.53;39.80;;;;;;;-146.25;100.00;52364.13;2072079;28;31886;-71
2023/03/21 00:44:49;;;;;;;70.13;39.15;;;;;;;-146.25;100.00;52368.19;2071565;28;20049;-71
2023/03/21 00:45:53;;;;;;;70.70;40.30;;;;;;;-146.25;100.00;52331.69;2078321;28;28267;-71
2023/03/21 00:46:55;;;;;;;64.93;38.55;;;;;;;-146.25;100.00;52360.09;2080283;28;25693;-71
2023/03/21 00:48:08;;;;;;;66.30;38.20;;;;;;;-146.25;100.00;52368.19;2079018;28;20172;-71
2023/03/21 00:49:10;;;;;;;74.75;39.08;;;;;;;-146.25;100.00;52368.19;2071200;28;32331;-71
2023/03/21 00:50:17;;;;;;;69.05;38.97;;;;;;;-146.25;100.00;52380.38;2080271;28;20357;-71
2023/03/21 00:51:25;;;;;;;69.15;40.38;;;;;;;-146.25;100.00;52343.88;2079169;28;31065;-71
2023/03/21 00:52:27;;;;;;;78.50;40.17;;;;;;;-146.25;100.00;52368.19;2072269;28;31043;-71
2023/03/21 00:53:41;;;;;;;67.43;39.65;;;;;;;-146.25;100.00;52386.44;2081766;28;33031;-71
2023/03/21 00:54:43;;;;;;;69.68;39.60;;;;;;;-146.25;100.00;52376.31;2088129;28;27545;-71
2023/03/21 00:55:45;;;;;;;74.10;40.15;;;;;;;-146.25;100.00;52335.75;2087911;28;24173;-71
2023/03/21 00:56:48;;;;;;;81.07;41.45;;;;;;;-146.25;100.00;52376.31;2087791;28;20046;-71
2023/03/21 00:57:50;;;;;;;68.68;40.53;;;;;;;-146.25;100.00;52360.09;2078946;28;26317;-71
2023/03/21 00:59:02;;;;;;;67.00;38.85;;;;;;;-146.25;100.00;52343.88;2080439;28;39318;-71
2023/03/21 01:00:06;;;;;;;71.57;40.15;;;;;;;-146.25;100.00;52358.06;2087853;28;25951;-71
2023/03/21 01:01:09;;;;;;;68.55;39.13;;;;;;;-146.25;100.00;52364.13;2079812;28;20045;-71
2023/03/21 01:02:21;;;;;;;71.22;39.17;;;;;;;-146.25;100.00;52358.06;2071259;28;20101;-71
2023/03/21 01:03:25;;;;;;;70.03;39.75;;;;;;;-146.25;100.00;52390.50;2079390;28;20195;-71
2023/03/21 01:04:27;;;;;;;64.47;37.63;;;;;;;-146.25;100.00;52376.31;2078925;28;34447;-71
2023/03/21 01:06:53;;;;;;;76.25;40.10;;;;;;;-146.25;100.00;52360.09;2087574;28;35012;-71
2023/03/21 01:07:55;;;;;;;72.40;39.30;;;;;;;-146.25;100.00;52368.19;2079440;28;20038;-71
2023/03/21 01:08:57;;;;;;;71.68;39.50;;;;;;;-146.25;100.00;52368.19;2079588;28;22490;-70
2023/03/21 01:09:59;;;;;;;72.60;41.63;;;;;;;-146.25;100.00;52382.38;2087828;28;34860;-71
2023/03/21 01:11:11;;;;;;;81.05;41.60;;;;;;;-146.25;100.00;52331.69;2079184;28;20088;-71
2023/03/21 01:12:13;;;;;;;78.32;40.90;;;;;;;-146.25;100.00;52378.34;2071744;28;36700;-71
2023/03/21 01:13:17;;;;;;;75.80;41.83;;;;;;;-146.25;100.00;52356.03;2080869;28;24438;-71
2023/03/21 01:14:21;;;;;;;75.30;42.60;;;;;;;-146.25;100.00;52358.06;2088186;28;25514;-71
2023/03/21 01:15:27;;;;;;;80.97;42.03;;;;;;;-146.25;100.00;52376.31;2079657;28;20107;-71
2023/03/21 01:16:29;;;;;;;80.38;41.00;;;;;;;-146.25;100.00;52380.38;2080445;28;20050;-71
2023/03/21 01:17:31;;;;;;;85.32;43.80;;;;;;;-146.25;100.00;52394.56;2088082;28;29336;-71
2023/03/21 01:18:35;;;;;;;73.18;43.85;;;;;;;-146.25;100.00;52364.13;2087577;28;20049;-71
2023/03/21 01:19:36;;;;;;;83.68;43.67;;;;;;;-146.25;100.00;52349.94;2087595;28;20046;-71
2023/03/21 01:20:55;;;;;;;87.85;41.70;;;;;;;-146.25;100.00;52362.13;2087797;28;34164;-71
2023/03/21 01:21:57;;;;;;;81.22;43.58;;;;;;;-146.25;100.00;52349.94;2078559;28;30983;-71
2023/03/21 01:23:02;;;;;;;85.07;43.72;;;;;;;-146.25;100.00;52339.81;2079185;28;20035;-71
2023/03/21 01:24:04;;;;;;;85.25;43.17;;;;;;;-146.25;100.00;52382.38;2087402;28;27306;-71
2023/03/21 01:25:08;;;;;;;87.28;44.03;;;;;;;-146.25;100.00;52374.28;2087396;28;20172;-71
2023/03/21 01:26:23;;;;;;;89.18;43.88;;;;;;;-146.25;100.00;52362.13;2088247;28;20041;-71
2023/03/21 01:27:25;;;;;;;80.63;42.63;;;;;;;-146.25;100.00;52382.38;2088229;28;20263;-71
2023/03/21 01:28:31;;;;;;;85.40;42.80;;;;;;;-146.25;100.00;52372.25;2086704;28;35337;-71
2023/03/21 01:29:33;;;;;;;84.03;41.30;;;;;;;-146.25;100.00;52343.88;2086753;28;31313;-71
2023/03/21 01:30:35;;;;;;;93.45;41.78;;;;;;;-146.25;100.00;52347.91;2071164;28;20951;-71
2023/03/21 01:31:43;;;;;;;81.65;42.72;;;;;;;-146.25;100.00;52386.44;2071612;28;25202;-71
2023/03/21 01:32:45;;;;;;;82.38;42.50;;;;;;;-146.25;100.00;52416.84;2078892;28;20092;-71
2023/03/21 01:33:47;;;;;;;88.07;44.75;;;;;;;-146.25;100.00;52390.50;2079116;28;20045;-71
2023/03/21 01:34:50;;;;;;;90.82;43.55;;;;;;;-146.25;100.00;52400.63;2087597;28;20034;-71
2023/03/21 01:35:52;;;;;;;83.63;43.67;;;;;;;-146.25;100.00;52347.91;2088144;28;20034;-71
2023/03/21 01:37:07;;;;;;;88.70;42.28;;;;;;;-146.25;100.00;52349.94;2088527;28;20034;-71
2023/03/21 01:38:16;;;;;;;83.00;42.03;;;;;;;-146.25;100.00;52351.97;2087671;28;20044;-71
2023/03/21 01:39:18;;;;;;;82.97;42.10;;;;;;;-146.25;100.00;52400.63;2078738;28;20045;-71
2023/03/21 01:40:25;;;;;;;81.82;41.80;;;;;;;-146.25;100.00;52384.41;2071344;28;20916;-71
2023/03/21 01:41:41;;;;;;;79.55;40.50;;;;;;;-146.25;100.00;52337.78;2072892;28;20129;-71
2023/03/21 01:43:00;;;;;;;81.97;41.22;;;;;;;-146.25;100.00;52394.56;2084151;28;20152;-71
2023/03/21 01:44:03;;;;;;;86.78;41.38;;;;;;;-146.25;100.00;52378.34;2078712;28;20077;-71
2023/03/21 01:46:20;;;;;;;81.97;42.03;;;;;;;-146.25;100.00;52315.47;2081005;28;20034;-71
2023/03/21 01:47:31;;;;;;;90.13;41.40;;;;;;;-146.25;100.00;52384.41;2054255;28;20031;-72
2023/03/21 01:48:42;;;;;;;88.90;42.25;;;;;;;-146.25;100.00;52333.72;2071639;28;20051;-72
2023/03/21 01:49:48;;;;;;;91.13;42.42;;;;;;;-146.25;100.00;52354.00;2088721;28;21613;-72
2023/03/21 01:51:00;;;;;;;78.18;41.20;;;;;;;-146.25;100.00;52378.34;2072630;28;20050;-71
2023/03/21 01:52:18;;;;;;;77.78;41.53;;;;;;;-146.25;100.00;52364.13;2077586;28;20824;-72
2023/03/21 01:53:40;;;;;;;86.57;42.25;;;;;;;-146.25;100.00;52378.34;2080473;28;20073;-70
2023/03/21 01:54:47;;;;;;;89.65;43.95;;;;;;;-146.25;100.00;52362.13;2081465;28;20127;-70
2023/03/21 01:55:50;;;;;;;77.50;41.25;;;;;;;-146.25;100.00;52376.31;2080611;28;20042;-70
2023/03/21 01:57:07;;;;;;;83.72;44.17;;;;;;;-146.25;100.00;52351.97;2073692;28;20897;-70
2023/03/21 01:58:11;;;;;;;85.85;42.85;;;;;;;-146.25;100.00;52390.50;2081404;28;20184;-71
2023/03/21 01:59:39;;;;;;;84.43;42.13;;;;;;;-146.25;100.00;52333.72;2072216;28;20046;-71
2023/03/21 02:01:01;;;;;;;87.13;43.20;;;;;;;-146.25;100.00;52388.47;2075563;28;21226;-71
2023/03/21 02:02:30;;;;;;;94.97;42.65;;;;;;;-146.25;100.00;52366.16;2069510;28;20911;-71
2023/03/21 02:03:54;;;;;;;87.13;42.40;;;;;;;-146.25;100.00;52380.38;2077501;28;20160;-70
2023/03/21 02:05:35;;;;;;;82.20;40.67;;;;;;;-146.25;100.00;52347.91;2072520;28;21056;-70
2023/03/21 02:06:51;;;;;;;85.35;42.33;;;;;;;-146.25;100.00;52368.19;2062639;28;20970;-71
2023/03/21 02:08:09;;;;;;;91.82;41.63;;;;;;;-146.25;100.00;52343.88;2072729;28;20117;-71
2023/03/21 02:09:17;;;;;;;84.70;42.80;;;;;;;-146.25;100.00;52404.69;2083891;28;20862;-70
2023/03/21 02:10:20;;;;;;;91.50;44.75;;;;;;;-146.25;100.00;52368.19;2080402;28;28413;-70
2023/03/21 02:11:28;;;;;;;90.32;43.38;;;;;;;-146.25;100.00;52404.69;2073739;28;20050;-71
2023/03/21 02:12:31;;;;;;;90.53;44.83;;;;;;;-146.25;100.00;52372.25;2064308;28;20039;-71
2023/03/21 02:13:32;;;;;;;89.90;42.50;;;;;;;-146.25;100.00;52378.34;2080720;28;20907;-70
2023/03/21 02:14:41;;;;;;;85.28;41.83;;;;;;;-146.25;100.00;52349.94;2080456;28;20100;-72
2023/03/21 02:16:11;;;;;;;87.93;42.45;;;;;;;-146.25;100.00;52368.19;2074014;28;20128;-70
2023/03/21 02:17:33;;;;;;;84.25;42.08;;;;;;;-146.25;100.00;52362.13;2074133;28;20113;-70
2023/03/21 02:19:05;;;;;;;86.78;42.72;;;;;;;-146.25;100.00;52378.34;2068473;28;20900;-71
2023/03/21 02:20:36;;;;;;;87.45;41.05;;;;;;;-146.25;100.00;52331.69;2076391;28;20050;-71
2023/03/21 02:21:55;;;;;;;90.95;41.97;;;;;;;-146.25;100.00;52384.41;2076272;28;20046;-70
2023/03/21 02:23:30;;;;;;;88.20;42.60;;;;;;;-146.25;100.00;52360.09;2077345;28;21344;-70
2023/03/21 02:24:53;;;;;;;88.20;42.30;;;;;;;-146.25;100.00;52368.19;2068449;28;20128;-71
2023/03/21 02:26:55;;;;;;;84.28;40.63;;;;;;;-146.25;100.00;52390.50;2084447;28;20168;-70
2023/03/21 02:28:39;;;;;;;83.65;40.70;;;;;;;-146.25;100.00;52376.31;2079781;28;20896;-70
2023/03/21 02:30:06;;;;;;;91.45;42.67;;;;;;;-146.25;100.00;52370.22;2076133;28;20205;-71
2023/03/21 02:31:39;;;;;;;82.68;41.58;;;;;;;-146.25;100.00;52364.13;2079391;28;20113;-69
2023/03/21 02:33:32;;;;;;;92.97;42.80;;;;;;;-146.25;100.00;52364.13;2076538;28;20092;-70
2023/03/21 02:35:13;;;;;;;85.28;41.10;;;;;;;-146.25;100.00;52343.88;2087868;28;20903;-70
2023/03/21 02:36:35;;;;;;;;;;;;;;;-146.25;100.00;52315.47;2065954;28;20174;-71
2023/03/21 02:37:49;;;;;;;86.90;41.17;;;;;;;-146.25;100.00;52388.47;2069836;28;20075;-72
2023/03/21 02:39:03;;;;;;;88.68;42.53;;;;;;;-146.25;100.00;52329.66;2067172;28;20105;-70
2023/03/21 02:40:14;;;;;;;90.47;42.15;;;;;;;-146.25;100.00;52372.25;2067139;28;20043;-72
2023/03/21 02:41:28;;;;;;;;;;;;;;;-146.25;100.00;52380.38;2073581;28;27218;-70
2023/03/21 02:43:12;;;;;;;86.20;41.50;;;;;;;-146.25;100.00;52325.63;2079690;28;19976;-72
2023/03/21 02:44:42;;;;;;;78.55;40.10;;;;;;;-146.25;100.00;52360.09;2077565;28;20073;-70
2023/03/21 02:46:07;;;;;;;87.50;42.00;;;;;;;-146.25;100.00;52345.91;2066032;28;20082;-71
2023/03/21 02:47:25;;;;;;;87.53;41.20;;;;;;;-146.25;100.00;52378.34;2064320;28;20824;-70
2023/03/21 02:48:46;;;;;;;81.70;41.47;;;;;;;-146.25;100.00;52394.56;2073892;28;27635;-71
2023/03/21 02:50:11;;;;;;;85.47;42.22;;;;;;;-146.25;100.00;52354.00;2079782;28;20140;-71
2023/03/21 02:51:17;;;;;;;83.22;42.63;;;;;;;-146.25;100.00;52349.94;2082309;28;20044;-71
2023/03/21 02:52:28;;;;;;;88.82;42.97;;;;;;;-146.25;100.00;52380.38;2079875;28;20050;-71
2023/03/21 02:53:50;;;;;;;84.57;42.42;;;;;;;-146.25;100.00;52366.16;2074845;28;20053;-72
2023/03/21 02:55:21;;;;;;;94.07;43.95;;;;;;;-146.25;100.00;52376.31;2078308;28;20130;-71
2023/03/21 02:56:32;;;;;;;92.38;43.60;;;;;;;-146.25;100.00;52356.03;2066197;28;20045;-71
2023/03/21 02:57:34;;;;;;;91.40;43.22;;;;;;;-146.25;100.00;52354.00;2082616;28;20057;-71
2023/03/21 02:58:46;;;;;;;;;;;;;;;-146.25;100.00;52341.84;2081673;28;20922;-70
2023/03/21 02:59:50;;;;;;;87.25;41.00;;;;;;;-146.25;100.00;52400.63;2088281;28;19921;-71
2023/03/21 03:01:07;;;;;;;93.15;43.13;;;;;;;-146.25;100.00;52323.59;2092089;28;20111;-71
2023/03/21 03:02:21;;;;;;;102.45;44.60;;;;;;;-146.25;100.00;52388.47;2089915;28;20904;-71
2023/03/21 03:03:23;;;;;;;94.15;44.60;;;;;;;-146.25;100.00;52349.94;2080684;28;20756;-71
2023/03/21 03:04:36;;;;;;;96.78;44.08;;;;;;;-146.25;100.00;52372.25;2084270;28;20034;-71
2023/03/21 03:05:50;;;;;;;86.82;42.13;;;;;;;-146.25;100.00;52360.09;2087624;28;20904;-71
2023/03/21 03:07:06;;;;;;;90.00;43.60;;;;;;;-146.25;100.00;52366.16;2089860;28;20049;-71
2023/03/21 03:08:13;;;;;;;87.68;42.65;;;;;;;-146.25;100.00;52343.88;2099871;28;24894;-71
2023/03/21 03:09:29;;;;;;;89.78;43.50;;;;;;;-146.25;100.00;52347.91;2096338;28;20633;-71
2023/03/21 03:10:49;;;;;;;89.53;44.72;;;;;;;-146.25;100.00;52358.06;2098608;28;27980;-71
2023/03/21 03:12:08;;;;;;;96.38;44.28;;;;;;;-146.25;100.00;52364.13;2087639;28;22888;-71
2023/03/21 03:13:28;;;;;;;83.88;41.88;;;;;;;-146.25;100.00;52329.66;2082078;28;20038;-71
2023/03/21 03:15:22;;;;;;;90.28;43.80;;;;;;;-146.25;100.00;52360.09;2079351;28;20089;-71
2023/03/21 03:16:45;;;;;;;94.68;43.97;;;;;;;-146.25;100.00;52341.84;2090651;28;20672;-71
2023/03/21 03:17:54;;;;;;;88.47;43.13;;;;;;;-146.25;100.00;52386.44;2095938;28;27998;-71
2023/03/21 03:19:00;;;;;;;91.13;43.00;;;;;;;-146.25;100.00;52349.94;2089841;28;20041;-71
2023/03/21 03:20:34;;;;;;;100.60;44.63;;;;;;;-146.25;100.00;52380.38;2098997;28;20041;-71
2023/03/21 03:21:48;;;;;;;96.10;44.60;;;;;;;-146.25;100.00;52349.94;2097594;28;20041;-71
2023/03/21 03:23:18;;;;;;;97.30;44.47;;;;;;;-146.25;100.00;52351.97;2096495;28;20044;-71
2023/03/21 03:24:30;;;;;;;101.60;45.20;;;;;;;-146.25;100.00;52368.19;2102181;28;20071;-72
2023/03/21 03:26:04;;;;;;;97.32;45.78;;;;;;;-146.25;100.00;52404.69;2104589;28;20916;-72
2023/03/21 03:27:14;;;;;;;95.22;44.97;;;;;;;-146.25;100.00;52374.28;2080238;28;20045;-71
2023/03/21 03:28:26;;;;;;;96.72;45.17;;;;;;;-146.25;100.00;52366.16;2078399;28;20796;-71
2023/03/21 03:29:34;;;;;;;95.53;45.30;;;;;;;-146.25;100.00;52356.03;2082501;28;20073;-72
2023/03/21 03:30:38;;;;;;;96.80;46.30;;;;;;;-146.25;100.00;52372.25;2082536;28;20168;-71
2023/03/21 03:32:04;;;;;;;90.57;43.20;;;;;;;-146.25;100.00;52380.38;2081284;28;20920;-71
2023/03/21 03:33:10;;;;;;;98.28;46.60;;;;;;;-146.25;100.00;52372.25;2084197;28;20137;-71
2023/03/21 03:34:21;;;;;;;100.30;46.58;;;;;;;-146.25;100.00;52412.81;2091185;28;20045;-72
2023/03/21 03:35:25;;;;;;;95.97;46.35;;;;;;;-146.25;100.00;52360.09;2088326;28;20042;-71
2023/03/21 03:36:37;;;;;;;102.55;46.47;;;;;;;-146.25;100.00;52418.88;2081421;28;20046;-72
2023/03/21 03:37:51;;;;;;;97.40;45.00;;;;;;;-146.25;100.00;52368.19;2090424;28;20089;-71
2023/03/21 03:38:54;;;;;;;103.25;46.50;;;;;;;-146.25;100.00;52341.84;2088719;28;20148;-71
2023/03/21 03:40:07;;;;;;;96.25;45.97;;;;;;;-146.25;100.00;52414.84;2097442;28;20033;-71
2023/03/21 03:41:22;;;;;;;101.47;45.70;;;;;;;-146.25;100.00;52382.38;2095710;28;20906;-71
2023/03/21 03:42:41;;;;;;;95.57;43.97;;;;;;;-146.25;100.00;52356.03;2081856;28;20834;-71
2023/03/21 03:43:58;;;;;;;96.80;43.78;;;;;;;-146.25;100.00;52392.53;2087262;28;20131;-72
2023/03/21 03:45:05;;;;;;;101.75;45.38;;;;;;;-146.25;100.00;52358.06;2080384;28;20049;-71
2023/03/21 03:46:18;;;;;;;99.30;46.72;;;;;;;-146.25;100.00;52392.53;2089196;28;32999;-71
2023/03/21 03:47:35;;;;;;;99.78;46.20;;;;;;;-146.25;100.00;52360.09;2088052;28;20889;-71
2023/03/21 03:48:59;;;;;;;96.57;43.13;;;;;;;-146.25;100.00;52372.25;2087943;28;20037;-71
2023/03/21 03:50:19;;;;;;;96.97;46.03;;;;;;;-146.25;100.00;52343.88;2089698;28;20049;-71
2023/03/21 03:52:09;;;;;;;93.85;44.42;;;;;;;-146.25;100.00;52394.56;2090432;28;20056;-71
2023/03/21 03:53:28;;;;;;;91.38;42.70;;;;;;;-146.25;100.00;52351.97;2094489;28;20120;-71
2023/03/21 03:54:42;;;;;;;97.47;45.38;;;;;;;-146.25;100.00;52343.88;2102836;28;20925;-71
2023/03/21 03:55:45;;;;;;;104.40;45.45;;;;;;;-146.25;100.00;52370.22;2088090;28;20160;-71
2023/03/21 03:56:52;;;;;;;102.47;46.45;;;;;;;-146.25;100.00;52392.53;2074077;28;20086;-71
2023/03/21 03:57:54;;;;;;;100.68;47.13;;;;;;;-146.25;100.00;52398.59;2072902;28;20782;-71
2023/03/21 03:58:56;;;;;;;106.55;47.25;;;;;;;-146.25;100.00;52354.00;2072281;28;20120;-71
2023/03/21 04:00:16;;;;;;;107.10;46.95;;;;;;;-146.25;100.00;52388.47;2090750;28;20081;-71
2023/03/21 04:01:18;;;;;;;101.45;47.00;;;;;;;-146.25;100.00;52396.59;2095334;28;42309;-71
2023/03/21 04:02:20;;;;;;;111.72;48.40;;;;;;;-146.25;100.00;52388.47;2088157;28;20049;-71
2023/03/21 04:03:22;;;;;;;107.60;46.95;;;;;;;-146.25;100.00;52386.44;2079678;28;20041;-71
2023/03/21 04:04:27;;;;;;;103.80;45.95;;;;;;;-146.25;100.00;52378.34;2080635;28;20046;-71
2023/03/21 04:05:31;;;;;;;100.35;46.10;;;;;;;-146.25;100.00;52376.31;2088331;28;20895;-72
2023/03/21 04:06:33;;;;;;;98.80;45.97;;;;;;;-146.25;100.00;52339.81;2087966;28;20060;-72
2023/03/21 04:07:35;;;;;;;101.88;47.15;;;;;;;-146.25;100.00;52374.28;2087948;28;20177;-71
2023/03/21 04:08:36;;;;;;;107.07;47.55;;;;;;;-146.25;100.00;52378.34;2087899;28;21750;-71
2023/03/21 04:09:38;;;;;;;104.93;47.03;;;;;;;-146.25;100.00;52384.41;2087467;28;20050;-71
2023/03/21 04:10:48;;;;;;;104.47;46.28;;;;;;;-146.25;100.00;52414.84;2088333;28;20069;-71
2023/03/21 04:11:50;;;;;;;99.80;45.58;;;;;;;-146.25;100.00;52329.66;2087655;28;20160;-71
2023/03/21 04:12:52;;;;;;;117.10;47.30;;;;;;;-146.25;100.00;52410.78;2096247;28;20052;-71
2023/03/21 04:14:16;;;;;;;110.28;47.67;;;;;;;-146.25;100.00;52386.44;2104707;28;20082;-71
2023/03/21 04:15:19;;;;;;;102.95;45.83;;;;;;;-146.25;100.00;52372.25;2095944;28;20834;-71
2023/03/21 04:16:31;;;;;;;108.05;46.13;;;;;;;-146.25;100.00;52343.88;2088474;28;20049;-71
2023/03/21 04:17:38;;;;;;;104.57;46.20;;;;;;;-146.25;100.00;52378.34;2088871;28;20049;-71
2023/03/21 04:18:40;;;;;;;106.72;47.72;;;;;;;-146.25;100.00;52404.69;2096821;28;20041;-71
2023/03/21 04:19:45;;;;;;;110.28;47.58;;;;;;;-146.25;100.00;52362.13;2096487;28;20041;-71
2023/03/21 04:20:48;;;;;;;108.55;46.28;;;;;;;-146.25;100.00;52376.31;2096670;28;20037;-71
2023/03/21 04:21:50;;;;;;;112.88;48.05;;;;;;;-146.25;100.00;52388.47;2087666;28;20960;-71
2023/03/21 04:22:55;;;;;;;103.32;45.80;;;;;;;-146.25;100.00;52345.91;2087835;28;20761;-71
2023/03/21 04:23:58;;;;;;;101.55;47.80;;;;;;;-146.25;100.00;52372.25;2088335;28;20033;-71
2023/03/21 04:25:04;;;;;;;97.60;44.58;;;;;;;-146.25;100.00;52329.66;2088007;28;20050;-72
2023/03/21 04:26:09;;;;;;;110.50;47.03;;;;;;;-146.25;100.00;52360.09;2079913;28;20080;-71
2023/03/21 04:27:16;;;;;;;112.30;46.53;;;;;;;-146.25;100.00;52372.25;2082842;28;20458;-71
2023/03/21 04:28:36;;;;;;;105.85;47.30;;;;;;;-146.25;100.00;52368.19;2081994;28;20123;-71
2023/03/21 04:29:48;;;;;;;105.55;46.33;;;;;;;-146.25;100.00;52368.19;2089357;28;20819;-70
2023/03/21 04:31:12;;;;;;;112.65;47.38;;;;;;;-146.25;100.00;52382.38;2090783;28;20164;-72
2023/03/21 04:32:28;;;;;;;112.63;46.75;;;;;;;-146.25;100.00;52356.03;2089627;28;20042;-72
2023/03/21 04:33:40;;;;;;;117.50;48.72;;;;;;;-146.25;100.00;52356.03;2089578;28;20059;-72
2023/03/21 04:34:48;;;;;;;118.20;48.95;;;;;;;-146.25;100.00;52380.38;2095875;28;20052;-72
2023/03/21 04:35:55;;;;;;;120.43;48.30;;;;;;;-146.25;100.00;52400.63;2089228;28;20094;-71
2023/03/21 04:36:58;;;;;;;113.47;47.97;;;;;;;-146.25;100.00;52376.31;2079802;28;20045;-71
2023/03/21 04:38:02;;;;;;;113.13;47.95;;;;;;;-146.25;100.00;52376.31;2080462;28;20147;-71
2023/03/21 04:39:11;;;;;;;113.25;47.45;;;;;;;-146.25;100.00;52398.59;2096267;28;20037;-71
2023/03/21 04:40:17;;;;;;;107.93;46.90;;;;;;;-146.25;100.00;52358.06;2095930;28;20049;-71
2023/03/21 04:41:19;;;;;;;118.85;47.53;;;;;;;-146.25;100.00;52372.25;2095622;28;20175;-71
2023/03/21 04:42:22;;;;;;;123.25;47.95;;;;;;;-146.25;100.00;52364.13;2087929;28;20748;-72
2023/03/21 04:43:27;;;;;;;128.18;50.70;;;;;;;-146.25;100.00;52400.63;2096063;28;20740;-71
2023/03/21 04:44:30;;;;;;;123.53;49.22;;;;;;;-146.25;100.00;52388.47;2096535;28;20953;-71
2023/03/21 04:45:32;;;;;;;120.22;49.45;;;;;;;-146.25;100.00;52368.19;2096032;28;20032;-71
2023/03/21 04:46:35;;;;;;;128.98;48.90;;;;;;;-146.25;100.00;52360.09;2104544;28;20045;-71
2023/03/21 04:47:37;;;;;;;125.05;48.63;;;;;;;-146.25;100.00;52388.47;2095783;28;20029;-71
2023/03/21 04:48:38;;;;;;;115.80;46.42;;;;;;;-146.25;100.00;52364.13;2095747;28;20774;-71
2023/03/21 04:49:43;;;;;;;122.55;48.30;;;;;;;-146.25;100.00;52394.56;2086875;28;20037;-71
2023/03/21 04:50:50;;;;;;;120.07;49.08;;;;;;;-146.25;100.00;52376.31;2096197;28;20792;-71
2023/03/21 04:51:52;;;;;;;129.52;49.78;;;;;;;-146.25;100.00;52418.88;2087716;28;21545;-71
2023/03/21 04:52:56;;;;;;;126.00;49.58;;;;;;;-146.25;100.00;52358.06;2088101;28;20038;-71
2023/03/21 04:53:58;;;;;;;133.70;49.50;;;;;;;-146.25;100.00;52396.59;2095820;28;24913;-71
2023/03/21 04:55:00;;;;;;;134.30;49.60;;;;;;;-146.25;100.00;52392.53;2096199;28;20037;-71
2023/03/21 04:56:03;;;;;;;121.28;47.92;;;;;;;-146.25;100.00;52404.69;2087323;28;20868;-72
2023/03/21 04:57:05;;;;;;;140.85;50.15;;;;;;;-146.25;100.00;52349.94;2087839;28;29206;-72
2023/03/21 04:58:07;;;;;;;136.57;50.97;;;;;;;-146.25;100.00;52396.59;2079688;28;20050;-72
2023/03/21 04:59:13;;;;;;;125.88;48.90;;;;;;;-146.25;100.00;52337.78;2087810;28;23315;-71
2023/03/21 05:00:15;;;;;;;133.98;49.33;;;;;;;-146.25;100.00;52368.19;2087570;28;20037;-71
2023/03/21 05:01:19;;;;;;;121.60;50.38;;;;;;;-146.25;100.00;52360.09;2071902;28;20034;-72
2023/03/21 05:02:21;;;;;;;125.90;48.90;;;;;;;-146.25;100.00;52386.44;2087710;28;20038;-71
2023/03/21 05:03:24;;;;;;;124.97;50.47;;;;;;;-146.25;100.00;52396.59;2095599;28;33975;-71
2023/03/21 05:04:28;;;;;;;126.75;48.60;;;;;;;-146.25;100.00;52398.59;2095357;28;27140;-71
2023/03/21 05:05:30;;;;;;;125.93;49.13;;;;;;;-146.25;100.00;52364.13;2088183;28;20045;-71
2023/03/21 05:06:32;;;;;;;129.82;49.20;;;;;;;-146.25;100.00;52392.53;2096311;28;20040;-72
2023/03/21 05:07:34;;;;;;;135.82;49.15;;;;;;;-146.25;100.00;52343.88;2104477;28;27012;-72
2023/03/21 05:08:36;;;;;;;121.70;50.10;;;;;;;-146.25;100.00;52414.84;2104653;28;24349;-71
2023/03/21 05:09:38;;;;;;;127.28;49.45;;;;;;;-146.25;100.00;52368.19;2095796;28;20798;-71
2023/03/21 05:10:40;;;;;;;119.97;49.88;;;;;;;-146.25;100.00;52372.25;2087705;28;20972;-71
2023/03/21 05:11:43;;;;;;;123.05;48.78;;;;;;;-146.25;100.00;52398.59;2088054;28;20679;-71
2023/03/21 05:12:47;;;;;;;120.25;48.83;;;;;;;-146.25;100.00;52356.03;2095898;28;20041;-71
2023/03/21 05:13:49;;;;;;;126.30;48.75;;;;;;;-146.25;100.00;52420.91;2103823;28;24402;-71